createdAt,value
2024-01-22T00:00:10.342Z,2.83
2024-01-22T00:02:37.720Z,2.22
2024-01-22T00:05:04.863Z,2.63
2024-01-22T00:07:32.405Z,3.97
2024-01-22T00:09:59.252Z,3.50
2024-01-22T00:12:26.180Z,2.10
2024-01-22T00:14:53.091Z,3.08
2024-01-22T00:17:20.023Z,2.97
2024-01-22T00:19:47.063Z,2.78
2024-01-22T00:22:13.982Z,3.17
2024-01-22T00:24:41.454Z,2.30
2024-01-22T00:27:08.420Z,3.05
2024-01-22T00:29:35.365Z,3.75
2024-01-22T00:32:02.305Z,3.15
2024-01-22T00:34:29.276Z,3.03
2024-01-22T00:36:56.276Z,3.25
2024-01-22T00:39:23.443Z,3.30
2024-01-22T00:41:50.311Z,3.05
2024-01-22T00:44:17.170Z,2.70
2024-01-22T00:46:44.063Z,2.75
2024-01-22T00:49:11.197Z,3.30
2024-01-22T00:51:38.551Z,2.15
2024-01-22T00:54:05.449Z,2.08
2024-01-22T00:56:32.425Z,1.92
2024-01-22T00:58:59.340Z,2.25
2024-01-22T01:01:26.452Z,1.88
2024-01-22T01:03:56.155Z,3.10
2024-01-22T01:06:23.163Z,1.63
2024-01-22T01:08:50.381Z,1.85
2024-01-22T01:11:17.310Z,2.05
2024-01-22T01:13:44.168Z,2.72
2024-01-22T01:16:11.491Z,3.22
2024-01-22T01:18:38.474Z,1.48
2024-01-22T01:21:05.556Z,3.22
2024-01-22T01:23:34.147Z,1.90
2024-01-22T01:26:01.675Z,2.20
2024-01-22T01:28:28.576Z,2.30
2024-01-22T01:30:55.436Z,1.52
2024-01-22T01:33:22.446Z,1.60
2024-01-22T01:35:49.592Z,2.13
2024-01-22T01:38:16.488Z,1.80
2024-01-22T01:40:43.692Z,2.08
2024-01-22T01:43:10.566Z,1.45
2024-01-22T01:45:37.444Z,2.35
2024-01-22T01:48:04.703Z,1.63
2024-01-22T01:50:31.776Z,0.85
2024-01-22T01:52:58.670Z,0.70
2024-01-22T01:55:25.668Z,2.13
2024-01-22T01:57:57.668Z,0.70
2024-01-22T02:00:30.490Z,1.35
2024-01-22T02:02:57.627Z,1.98
2024-01-22T02:05:24.631Z,1.98
2024-01-22T02:07:51.518Z,0.82
2024-01-22T02:10:18.460Z,1.20
2024-01-22T02:12:45.477Z,1.17
2024-01-22T02:15:12.544Z,0.85
2024-01-22T02:17:39.624Z,1.42
2024-01-22T02:20:07.286Z,1.20
2024-01-22T02:22:34.217Z,0.80
2024-01-22T02:25:01.069Z,1.40
2024-01-22T02:27:27.969Z,1.67
2024-01-22T02:29:54.941Z,1.60
2024-01-22T02:32:21.823Z,1.50
2024-01-22T02:34:48.763Z,1.48
2024-01-22T02:37:15.776Z,0.30
2024-01-22T02:39:43.296Z,0.35
2024-01-22T02:42:10.346Z,0.98
2024-01-22T02:44:37.492Z,1.17
2024-01-22T02:47:04.723Z,0.73
2024-01-22T02:49:31.631Z,0.00
2024-01-22T02:51:58.546Z,1.30
2024-01-22T02:54:25.438Z,1.77
2024-01-22T02:56:52.290Z,2.05
2024-01-22T02:59:19.424Z,1.65
2024-01-22T03:01:46.477Z,1.67
2024-01-22T03:04:13.507Z,0.95
2024-01-22T03:06:40.583Z,0.63
2024-01-22T03:09:08.210Z,1.80
2024-01-22T03:11:35.107Z,2.13
2024-01-22T03:14:02.135Z,1.10
2024-01-22T03:16:29.000Z,2.65
2024-01-22T03:18:55.932Z,1.55
2024-01-22T03:21:23.011Z,2.20
2024-01-22T03:23:49.930Z,2.40
2024-01-22T03:26:23.541Z,2.10
2024-01-22T03:28:51.159Z,0.25
2024-01-22T03:31:25.492Z,0.50
2024-01-22T03:33:54.121Z,1.20
2024-01-22T03:36:22.244Z,2.55
2024-01-22T03:38:49.194Z,2.10
2024-01-22T03:41:16.284Z,1.98
2024-01-22T03:43:44.719Z,1.30
2024-01-22T03:46:12.788Z,0.88
2024-01-22T03:48:41.046Z,1.83
2024-01-22T03:51:08.584Z,1.55
2024-01-22T03:53:35.690Z,1.73
2024-01-22T03:56:06.960Z,1.67
2024-01-22T03:58:34.961Z,2.03
2024-01-22T04:01:03.102Z,2.13
2024-01-22T04:03:30.443Z,1.75
2024-01-22T04:05:57.506Z,1.58
2024-01-22T04:08:24.793Z,1.20
2024-01-22T04:10:51.654Z,0.85
2024-01-22T04:13:18.514Z,1.50
2024-01-22T04:15:45.401Z,0.65
2024-01-22T04:18:12.870Z,0.88
2024-01-22T04:20:39.827Z,0.93
2024-01-22T04:23:06.766Z,2.40
2024-01-22T04:25:33.659Z,0.63
2024-01-22T04:28:00.497Z,2.10
2024-01-22T04:30:27.474Z,1.13
2024-01-22T04:32:54.549Z,1.00
2024-01-22T04:35:21.467Z,1.70
2024-01-22T04:37:48.352Z,1.02
2024-01-22T04:40:16.201Z,1.20
2024-01-22T04:42:43.290Z,1.58
2024-01-22T04:45:10.536Z,1.70
2024-01-22T04:47:38.666Z,1.00
2024-01-22T04:50:06.076Z,0.93
2024-01-22T04:52:33.062Z,1.10
2024-01-22T04:55:05.883Z,0.68
2024-01-22T04:57:40.365Z,1.85
2024-01-22T05:00:07.861Z,0.85
2024-01-22T05:02:34.837Z,1.20
2024-01-22T05:05:02.807Z,0.90
2024-01-22T05:07:29.734Z,1.33
2024-01-22T05:10:01.020Z,1.52
2024-01-22T05:12:28.162Z,2.15
2024-01-22T05:14:55.216Z,0.70
2024-01-22T05:17:22.143Z,1.48
2024-01-22T05:19:49.294Z,1.55
2024-01-22T05:22:16.286Z,1.20
2024-01-22T05:24:43.236Z,1.20
2024-01-22T05:27:10.209Z,1.38
2024-01-22T05:29:37.163Z,1.95
2024-01-22T05:32:04.346Z,1.58
2024-01-22T05:34:31.500Z,2.05
2024-01-22T05:36:58.414Z,1.85
2024-01-22T05:39:25.407Z,1.02
2024-01-22T05:41:52.346Z,1.42
2024-01-22T05:44:19.205Z,0.80
2024-01-22T05:46:46.214Z,1.15
2024-01-22T05:49:13.230Z,1.70
2024-01-22T05:51:40.122Z,1.45
2024-01-22T05:54:07.329Z,1.05
2024-01-22T05:56:34.252Z,1.48
2024-01-22T05:59:01.124Z,1.90
2024-01-22T06:01:29.914Z,2.47
2024-01-22T06:03:56.885Z,1.67
2024-01-22T06:06:23.948Z,2.17
2024-01-22T06:08:51.360Z,2.40
2024-01-22T06:11:19.769Z,2.08
2024-01-22T06:13:53.888Z,2.13
2024-01-22T06:16:28.397Z,1.48
2024-01-22T06:18:55.412Z,1.25
2024-01-22T06:21:22.599Z,2.97
2024-01-22T06:23:49.662Z,1.75
2024-01-22T06:26:16.630Z,1.75
2024-01-22T06:28:43.537Z,1.60
2024-01-22T06:31:10.751Z,2.10
2024-01-22T06:33:37.862Z,2.05
2024-01-22T06:36:05.301Z,1.85
2024-01-22T06:38:32.235Z,2.33
2024-01-22T06:40:59.148Z,2.10
2024-01-22T06:43:26.054Z,2.47
2024-01-22T06:45:52.970Z,1.63
2024-01-22T06:48:20.166Z,1.70
2024-01-22T06:50:47.154Z,1.00
2024-01-22T06:53:14.095Z,2.40
2024-01-22T06:55:40.965Z,1.75
2024-01-22T06:58:07.828Z,0.77
2024-01-22T07:00:34.755Z,0.50
2024-01-22T07:03:01.826Z,0.60
2024-01-22T07:05:28.901Z,1.75
2024-01-22T07:07:55.843Z,0.75
2024-01-22T07:10:22.794Z,1.88
2024-01-22T07:12:49.683Z,0.95
2024-01-22T07:15:16.747Z,2.35
2024-01-22T07:17:44.364Z,3.03
2024-01-22T07:20:12.386Z,1.40
2024-01-22T07:22:39.247Z,3.00
2024-01-22T07:25:06.697Z,1.33
2024-01-22T07:27:33.541Z,1.42
2024-01-22T07:30:00.582Z,2.70
2024-01-22T07:32:27.581Z,4.63
2024-01-22T07:34:54.555Z,3.15
2024-01-22T07:37:21.610Z,1.08
2024-01-22T07:39:48.470Z,0.57
2024-01-22T07:42:15.362Z,1.27
2024-01-22T07:44:42.340Z,2.05
2024-01-22T07:47:09.261Z,3.28
2024-01-22T07:49:36.154Z,2.92
2024-01-22T07:52:03.147Z,0.88
2024-01-22T07:54:30.048Z,2.33
2024-01-22T07:56:56.970Z,1.73
2024-01-22T07:59:23.904Z,2.45
2024-01-22T08:01:50.838Z,2.72
2024-01-22T08:04:17.732Z,2.08
2024-01-22T08:06:44.722Z,1.40
2024-01-22T08:09:11.616Z,2.15
2024-01-22T08:11:38.621Z,2.38
2024-01-22T08:14:05.545Z,3.05
2024-01-22T08:16:32.442Z,1.15
2024-01-22T08:18:59.387Z,2.22
2024-01-22T08:21:26.406Z,2.08
2024-01-22T08:23:53.804Z,3.45
2024-01-22T08:26:20.731Z,1.27
2024-01-22T08:28:47.646Z,3.47
2024-01-22T08:31:14.547Z,2.47
2024-01-22T08:33:41.645Z,1.45
2024-01-22T08:36:08.802Z,2.70
2024-01-22T08:38:35.898Z,2.88
2024-01-22T08:41:02.992Z,3.17
2024-01-22T08:43:29.860Z,2.65
2024-01-22T08:45:56.818Z,3.28
2024-01-22T08:48:23.748Z,3.40
2024-01-22T08:50:50.756Z,2.17
2024-01-22T08:53:17.607Z,4.00
2024-01-22T08:55:44.672Z,3.17
2024-01-22T08:58:12.645Z,3.67
2024-01-22T09:00:40.533Z,2.45
2024-01-22T09:03:07.700Z,2.33
2024-01-22T09:05:34.758Z,3.00
2024-01-22T09:08:01.672Z,2.55
2024-01-22T09:10:28.554Z,3.25
2024-01-22T09:12:55.460Z,2.90
2024-01-22T09:15:22.473Z,3.50
2024-01-22T09:17:49.691Z,3.08
2024-01-22T09:20:16.755Z,3.58
2024-01-22T09:22:43.543Z,3.22
2024-01-22T09:25:10.499Z,3.22
2024-01-22T09:27:37.433Z,2.88
2024-01-22T09:30:04.747Z,3.13
2024-01-22T09:32:31.596Z,2.72
2024-01-22T09:34:58.521Z,2.80
2024-01-22T09:37:25.416Z,2.63
2024-01-22T09:39:52.688Z,3.35
2024-01-22T09:42:19.874Z,2.95
2024-01-22T09:44:47.619Z,3.60
2024-01-22T09:47:15.541Z,3.83
2024-01-22T09:49:43.245Z,3.50
2024-01-22T09:52:16.634Z,3.75
2024-01-22T09:54:45.077Z,2.63
2024-01-22T09:57:18.748Z,0.88
2024-01-22T09:59:47.240Z,0.80
2024-01-22T10:02:16.450Z,0.73
2024-01-22T10:04:45.238Z,0.93
2024-01-22T10:07:16.600Z,0.57
2024-01-22T10:09:44.818Z,1.00
2024-01-22T10:12:12.578Z,0.93
2024-01-22T10:14:39.519Z,0.75
2024-01-22T10:17:22.940Z,0.30
2024-01-22T10:19:50.850Z,0.73
2024-01-22T10:22:21.116Z,1.00
2024-01-22T10:25:03.992Z,0.90
2024-01-22T10:27:31.208Z,0.28
2024-01-22T10:30:14.293Z,0.77
2024-01-22T10:32:41.560Z,0.82
2024-01-22T10:35:25.155Z,0.90
2024-01-22T10:38:13.791Z,0.38
2024-01-22T10:40:41.817Z,1.02
2024-01-22T10:43:26.220Z,0.50
2024-01-22T10:45:56.770Z,0.70
2024-01-22T10:48:37.279Z,0.55
2024-01-22T10:51:09.562Z,0.55
2024-01-22T10:53:37.416Z,0.70
2024-01-22T10:56:14.048Z,0.95
2024-01-22T10:58:45.644Z,0.75
2024-01-22T11:01:16.563Z,0.38
2024-01-22T11:03:55.508Z,0.60
2024-01-22T11:06:27.612Z,0.95
2024-01-22T11:08:57.128Z,0.40
2024-01-22T11:11:29.719Z,0.85
2024-01-22T11:13:58.467Z,0.57
2024-01-22T11:16:25.743Z,1.15
2024-01-22T11:19:04.333Z,0.50
2024-01-22T11:21:39.352Z,1.05
2024-01-22T11:24:20.079Z,1.25
2024-01-22T11:27:07.697Z,0.55
2024-01-22T11:29:35.439Z,0.63
2024-01-22T11:32:30.341Z,0.80
2024-01-22T11:35:03.090Z,0.60
2024-01-22T11:37:39.230Z,0.10
2024-01-22T11:40:08.280Z,0.75
2024-01-22T11:42:35.786Z,0.82
2024-01-22T11:45:15.822Z,1.15
2024-01-22T11:47:43.483Z,0.63
2024-01-22T11:50:10.912Z,1.35
2024-01-22T11:52:38.611Z,0.70
2024-01-22T11:55:08.111Z,0.45
2024-01-22T11:57:36.679Z,0.30
2024-01-22T12:00:08.581Z,1.00
2024-01-22T12:02:35.903Z,0.73
2024-01-22T12:05:14.966Z,0.85
2024-01-22T12:07:43.929Z,0.65
2024-01-22T12:10:30.444Z,0.50
2024-01-22T12:13:04.967Z,1.50
2024-01-22T12:15:33.740Z,1.05
2024-01-22T12:18:02.186Z,0.30
2024-01-22T12:20:29.494Z,0.65
2024-01-22T12:23:00.703Z,0.40
2024-01-22T12:25:55.335Z,0.80
2024-01-22T12:28:24.534Z,0.38
2024-01-22T12:31:02.429Z,0.65
2024-01-22T12:33:32.617Z,0.63
2024-01-22T12:36:07.002Z,0.65
2024-01-22T12:38:37.064Z,1.13
2024-01-22T12:41:04.370Z,0.40
2024-01-22T12:43:32.443Z,0.65
2024-01-22T12:46:09.809Z,1.00
2024-01-22T12:48:40.458Z,1.20
2024-01-22T12:51:09.545Z,0.80
2024-01-22T12:53:36.762Z,1.42
2024-01-22T12:56:05.386Z,0.90
2024-01-22T12:58:32.986Z,0.82
2024-01-22T13:00:59.967Z,1.17
2024-01-22T13:03:27.299Z,0.80
2024-01-22T13:05:54.364Z,0.80
2024-01-22T13:08:21.384Z,1.10
2024-01-22T13:10:48.276Z,0.47
2024-01-22T13:13:16.337Z,0.52
2024-01-22T13:15:52.446Z,0.52
2024-01-22T13:18:30.470Z,0.65
2024-01-22T13:20:57.573Z,0.50
2024-01-22T13:23:24.626Z,0.47
2024-01-22T13:25:52.628Z,0.30
2024-01-22T13:28:19.787Z,0.65
2024-01-22T13:30:46.706Z,0.95
2024-01-22T13:33:13.757Z,0.30
2024-01-22T13:35:40.646Z,1.42
2024-01-22T13:38:07.596Z,0.60
2024-01-22T13:40:34.521Z,1.52
2024-01-22T13:43:01.405Z,1.38
2024-01-22T13:45:29.268Z,1.35
2024-01-22T13:47:57.246Z,1.20
2024-01-22T13:50:24.225Z,0.85
2024-01-22T13:52:51.130Z,0.82
2024-01-22T13:55:18.210Z,1.45
2024-01-22T13:57:45.206Z,1.48
2024-01-22T14:00:12.422Z,0.75
2024-01-22T14:02:39.309Z,0.73
2024-01-22T14:05:06.207Z,0.90
2024-01-22T14:07:33.067Z,0.88
2024-01-22T14:09:59.990Z,0.77
2024-01-22T14:12:26.910Z,0.70
2024-01-22T14:14:53.882Z,0.70
2024-01-22T14:17:20.904Z,1.23
2024-01-22T14:19:48.029Z,0.65
2024-01-22T14:22:15.263Z,0.70
2024-01-22T14:24:42.200Z,0.68
2024-01-22T14:27:09.228Z,0.90
2024-01-22T14:29:36.166Z,0.80
2024-01-22T14:32:03.190Z,1.63
2024-01-22T14:34:30.414Z,1.35
2024-01-22T14:36:57.421Z,0.63
2024-01-22T14:39:24.526Z,1.27
2024-01-22T14:41:51.438Z,1.08
2024-01-22T14:44:18.336Z,0.57
2024-01-22T14:46:45.193Z,0.57
2024-01-22T14:49:17.090Z,0.57
2024-01-22T14:51:47.959Z,1.30
2024-01-22T14:54:15.279Z,0.57
2024-01-22T14:56:45.968Z,0.55
2024-01-22T14:59:13.157Z,0.63
2024-01-22T15:01:40.105Z,1.10
2024-01-22T15:04:07.232Z,0.73
2024-01-22T15:06:34.351Z,0.75
2024-01-22T15:09:01.295Z,0.40
2024-01-22T15:11:28.158Z,0.40
2024-01-22T15:13:55.370Z,0.68
2024-01-22T15:16:22.224Z,0.95
2024-01-22T15:18:49.303Z,0.70
2024-01-22T15:21:16.534Z,0.45
2024-01-22T15:23:43.636Z,0.50
2024-01-22T15:26:10.549Z,0.60
2024-01-22T15:28:37.491Z,0.82
2024-01-22T15:31:04.544Z,0.50
2024-01-22T15:33:31.877Z,1.42
2024-01-22T15:35:59.114Z,1.30
2024-01-22T15:38:26.334Z,0.80
2024-01-22T15:40:55.628Z,1.10
2024-01-22T15:43:24.567Z,0.50
2024-01-22T15:45:51.665Z,0.50
2024-01-22T15:48:18.844Z,0.73
2024-01-22T15:50:45.924Z,0.73
2024-01-22T15:53:12.790Z,0.60
2024-01-22T15:55:39.630Z,0.75
2024-01-22T15:58:06.487Z,0.45
2024-01-22T16:00:33.439Z,1.30
2024-01-22T16:03:00.393Z,0.95
2024-01-22T16:05:27.713Z,0.90
2024-01-22T16:07:54.864Z,1.17
2024-01-22T16:10:21.868Z,0.80
2024-01-22T16:12:48.734Z,0.90
2024-01-22T16:15:15.756Z,0.60
2024-01-22T16:17:42.996Z,0.90
2024-01-22T16:20:12.642Z,1.42
2024-01-22T16:22:39.601Z,0.40
2024-01-22T16:25:06.921Z,1.05
2024-01-22T16:27:34.232Z,0.38
2024-01-22T16:30:01.662Z,0.80
2024-01-22T16:32:28.833Z,1.70
2024-01-22T16:34:55.875Z,0.50
2024-01-22T16:37:22.810Z,0.85
2024-01-22T16:39:50.194Z,1.83
2024-01-22T16:42:17.134Z,0.52
2024-01-22T16:44:44.017Z,1.00
2024-01-22T16:47:11.411Z,0.20
2024-01-22T16:49:38.504Z,0.63
2024-01-22T16:52:05.809Z,0.55
2024-01-22T16:54:33.367Z,0.65
2024-01-22T16:57:00.380Z,0.60
2024-01-22T16:59:27.263Z,0.88
2024-01-22T17:01:54.097Z,0.90
2024-01-22T17:04:20.986Z,1.00
2024-01-22T17:06:48.016Z,1.38
2024-01-22T17:09:15.402Z,0.90
2024-01-22T17:11:42.477Z,1.00
2024-01-22T17:14:09.537Z,0.65
2024-01-22T17:16:36.465Z,0.60
2024-01-22T17:19:03.512Z,2.03
2024-01-22T17:21:30.445Z,1.02
2024-01-22T17:23:57.735Z,0.73
2024-01-22T17:26:24.781Z,0.75
2024-01-22T17:28:51.646Z,0.70
2024-01-22T17:31:18.526Z,1.40
2024-01-22T17:33:45.607Z,0.73
2024-01-22T17:36:14.207Z,1.27
2024-01-22T17:38:41.199Z,1.33
2024-01-22T17:41:08.455Z,1.10
2024-01-22T17:43:35.548Z,0.90
2024-01-22T17:46:05.608Z,0.22
2024-01-22T17:48:32.666Z,1.13
2024-01-22T17:50:59.968Z,0.75
2024-01-22T17:53:26.892Z,0.85
2024-01-22T17:55:53.784Z,0.50
2024-01-22T17:58:20.658Z,1.02
2024-01-22T18:00:47.611Z,1.98
2024-01-22T18:03:14.623Z,0.80
2024-01-22T18:05:41.546Z,0.50
2024-01-22T18:08:08.398Z,0.80
2024-01-22T18:10:35.305Z,1.08
2024-01-22T18:13:02.170Z,1.02
2024-01-22T18:15:29.132Z,1.05
2024-01-22T18:17:56.326Z,1.13
2024-01-22T18:20:23.273Z,1.23
2024-01-22T18:22:50.189Z,1.23
2024-01-22T18:25:17.222Z,1.25
2024-01-22T18:27:44.232Z,1.30
2024-01-22T18:30:11.875Z,0.80
2024-01-22T18:32:38.866Z,0.57
2024-01-22T18:35:06.204Z,0.90
2024-01-22T18:37:33.296Z,0.80
2024-01-22T18:40:00.199Z,0.88
2024-01-22T18:42:27.290Z,0.75
2024-01-22T18:44:54.277Z,0.95
2024-01-22T18:47:21.192Z,1.20
2024-01-22T18:49:48.079Z,0.88
2024-01-22T18:52:14.971Z,0.82
2024-01-22T18:54:41.879Z,0.35
2024-01-22T18:57:08.823Z,0.20
2024-01-22T18:59:36.022Z,1.17
2024-01-22T19:02:02.926Z,1.40
2024-01-22T19:04:29.907Z,1.27
2024-01-22T19:06:56.879Z,0.75
2024-01-22T19:09:23.815Z,1.25
2024-01-22T19:11:50.670Z,0.82
2024-01-22T19:14:17.616Z,0.77
2024-01-22T19:16:44.462Z,1.33
2024-01-22T19:19:11.418Z,0.65
2024-01-22T19:21:38.332Z,0.82
2024-01-22T19:24:05.558Z,1.08
2024-01-22T19:26:32.486Z,1.25
2024-01-22T19:28:59.401Z,0.50
2024-01-22T19:31:26.286Z,0.65
2024-01-22T19:33:53.352Z,0.95
2024-01-22T19:36:20.405Z,0.50
2024-01-22T19:38:47.284Z,0.95
2024-01-22T19:41:14.205Z,1.60
2024-01-22T19:43:41.277Z,0.77
2024-01-22T19:46:08.283Z,0.65
2024-01-22T19:48:35.138Z,0.80
2024-01-22T19:51:03.479Z,0.80
2024-01-22T19:53:30.321Z,1.55
2024-01-22T19:55:57.156Z,1.52
2024-01-22T19:58:24.051Z,0.90
2024-01-22T20:00:51.120Z,0.98
2024-01-22T20:03:18.194Z,0.55
2024-01-22T20:05:45.553Z,1.60
2024-01-22T20:08:12.442Z,1.23
2024-01-22T20:10:39.306Z,0.80
2024-01-22T20:13:06.208Z,1.23
2024-01-22T20:15:33.172Z,0.80
2024-01-22T20:18:00.229Z,1.10
2024-01-22T20:20:27.246Z,0.50
2024-01-22T20:22:54.091Z,0.70
2024-01-22T20:25:20.910Z,1.20
2024-01-22T20:27:49.329Z,1.65
2024-01-22T20:30:16.328Z,1.25
2024-01-22T20:32:43.231Z,1.00
2024-01-22T20:35:10.211Z,0.77
2024-01-22T20:37:37.195Z,1.23
2024-01-22T20:40:04.517Z,0.80
2024-01-22T20:42:31.449Z,0.70
2024-01-22T20:44:58.464Z,0.63
2024-01-22T20:47:26.043Z,1.30
2024-01-22T20:49:53.832Z,0.82
2024-01-22T20:52:20.661Z,0.95
2024-01-22T20:54:47.560Z,1.30
2024-01-22T20:57:15.299Z,0.90
2024-01-22T20:59:42.532Z,0.60
2024-01-22T21:02:09.405Z,1.15
2024-01-22T21:04:36.441Z,1.67
2024-01-22T21:07:03.638Z,1.00
2024-01-22T21:09:30.751Z,0.50
2024-01-22T21:11:57.760Z,2.95
2024-01-22T21:14:24.865Z,1.17
2024-01-22T21:16:51.889Z,1.23
2024-01-22T21:19:19.207Z,0.90
2024-01-22T21:21:46.187Z,0.95
2024-01-22T21:24:15.094Z,1.27
2024-01-22T21:26:46.132Z,0.68
2024-01-22T21:29:13.487Z,1.42
2024-01-22T21:31:40.331Z,0.77
2024-01-22T21:34:07.297Z,0.88
2024-01-22T21:36:34.325Z,0.98
2024-01-22T21:39:01.374Z,0.95
2024-01-22T21:41:28.283Z,0.70
2024-01-22T21:43:55.228Z,1.20
2024-01-22T21:46:22.250Z,0.57
2024-01-22T21:48:49.867Z,1.05
2024-01-22T21:51:16.816Z,1.63
2024-01-22T21:53:44.219Z,0.77
2024-01-22T21:56:11.889Z,0.20
2024-01-22T21:58:39.083Z,0.68
2024-01-22T22:01:06.541Z,0.68
2024-01-22T22:03:37.593Z,0.50
2024-01-22T22:06:05.278Z,1.77
2024-01-22T22:08:34.989Z,0.93
2024-01-22T22:11:02.365Z,0.90
2024-01-22T22:13:29.392Z,0.95
2024-01-22T22:15:56.267Z,1.00
2024-01-22T22:18:23.758Z,1.23
2024-01-22T22:20:51.417Z,2.08
2024-01-22T22:23:19.808Z,1.88
2024-01-22T22:25:46.709Z,0.68
2024-01-22T22:28:13.609Z,1.27
2024-01-22T22:30:40.490Z,1.38
2024-01-22T22:33:09.157Z,1.23
2024-01-22T22:35:36.941Z,0.88
2024-01-22T22:38:03.968Z,0.93
2024-01-22T22:40:30.813Z,0.63
2024-01-22T22:42:57.651Z,1.30
2024-01-22T22:45:24.573Z,0.82
2024-01-22T22:47:51.696Z,1.13
2024-01-22T22:50:18.558Z,0.98
2024-01-22T22:52:45.458Z,1.00
2024-01-22T22:55:12.442Z,1.30
2024-01-22T22:57:39.393Z,0.90
2024-01-22T23:00:06.990Z,1.00
2024-01-22T23:02:34.014Z,1.75
2024-01-22T23:05:01.173Z,0.80
2024-01-22T23:07:28.033Z,0.68
2024-01-22T23:09:54.919Z,1.17
2024-01-22T23:12:21.816Z,1.67
2024-01-22T23:14:48.711Z,0.38
2024-01-22T23:17:15.663Z,0.60
2024-01-22T23:19:42.541Z,1.33
2024-01-22T23:22:09.458Z,1.50
2024-01-22T23:24:36.398Z,1.33
2024-01-22T23:27:03.501Z,0.82
2024-01-22T23:29:30.450Z,2.45
2024-01-22T23:31:57.542Z,1.13
2024-01-22T23:34:24.520Z,1.52
2024-01-22T23:36:51.485Z,0.98
2024-01-22T23:39:18.419Z,0.90
2024-01-22T23:41:45.345Z,1.10
2024-01-22T23:44:12.190Z,1.20
2024-01-22T23:46:39.117Z,1.17
2024-01-22T23:49:06.197Z,0.95
2024-01-22T23:51:33.197Z,1.58
2024-01-22T23:54:00.243Z,1.77
2024-01-22T23:56:27.209Z,1.73
2024-01-22T23:58:54.042Z,1.65
